Flight Track Log - Related Links

Times and Time Zones

All times are in EDT time to prevent confusion due to time zone crossing. See the EJA947 flight status page for this flight to view local times or setup timezone preferences in your user account.

Time Position Orientation Groundspeed Altitude Reporting Facility
EDT Latitude Longitude Course Direction KTS MPH feet Rate Location/Type
Mon 04:50:37 PM 32.7333 -117.2167 287° West 195 224 1,300  Level Southern California TRACON
Mon 04:51:31 PM 32.7500 -117.2833 287° West 232 267 4,000 2,958 Climbing Southern California TRACON
Mon 04:51:48 PM 32.7592 -117.2981 307° West 228 262 4,800 3,300 Climbing Los Angeles Center
Mon 04:52:51 PM 32.7081 -117.3325 210° Southwest 263 303 8,400 2,928 Climbing Los Angeles Center
Mon 04:53:53 PM 32.6522 -117.2606 133° Southeast 298 343 10,900 2,419 Climbing Los Angeles Center
Mon 04:54:55 PM 32.6378 -117.1581 99° East 320 368 13,400 1,597 Climbing Los Angeles Center
Mon 04:55:57 PM 32.6175 -117.0194 100° East 352 405 14,200 823 Climbing Los Angeles Center
Mon 04:56:59 PM 32.6206 -116.8811 88° East 411 473 15,100 1,065 Climbing Los Angeles Center
Mon 04:58:01 PM 32.6347 -116.7386 83° East 433 498 16,400 1,403 Climbing Los Angeles Center
Mon 04:59:03 PM 32.6481 -116.5942 84° East 442 509 18,000 1,440 Climbing Los Angeles Center
Mon 05:00:06 PM 32.6611 -116.4500 84° East 446 513 19,400 1,440 Climbing Los Angeles Center
Mon 05:01:08 PM 32.6783 -116.2728 83° East 459 528 21,000 1,597 Climbing Los Angeles Center
Mon 05:02:10 PM 32.6922 -116.1228 84° East 464 534 22,700 1,500 Climbing Los Angeles Center
Mon 05:03:12 PM 32.7075 -115.9683 83° East 474 545 24,100 1,452 Climbing Los Angeles Center
Mon 05:04:14 PM 32.7219 -115.8089 84° East 486 559 25,700 1,694 Climbing Los Angeles Center
Mon 05:05:16 PM 32.7394 -115.6131 84° East 497 572 27,600 1,597 Climbing Los Angeles Center
Mon 05:06:18 PM 32.7517 -115.4478 85° East 503 579 29,000 1,392 Climbing Los Angeles Center
Mon 05:07:21 PM 32.7550 -115.2769 89° East 517 595 30,500 1,645 Climbing Los Angeles Center
Mon 05:08:22 PM 32.7608 -115.1064 88° East 513 590 32,400 1,790 Climbing Los Angeles Center
Mon 05:09:25 PM 32.7650 -114.9358 88° East 515 593 34,200 1,248 Climbing Los Angeles Center
Mon 05:10:27 PM 32.7683 -114.7611 89° East 525 604 35,000 387 Climbing Los Angeles Center
Mon 05:11:29 PM 32.7719 -114.5453 89° East 541 623 35,000  Level Los Angeles Center
Mon 05:12:43 PM 32.7739 -114.3264 89° East 549 632 35,000  Level Los Angeles Center
Mon 05:13:45 PM 32.7772 -114.1464 89° East 543 625 35,000  Level Los Angeles Center
Mon 05:14:48 PM 32.7806 -113.9669 89° East 544 626 35,000  Level Los Angeles Center
Mon 05:15:50 PM 32.8192 -113.7942 75° East 540 621 35,000 194 Level Los Angeles Center
Mon 05:16:52 PM 32.8903 -113.5953 67° East 544 626 35,400 629 Climbing Los Angeles Center
Mon 05:17:54 PM 32.9464 -113.4272 68° East 547 629 36,300 919 Climbing Los Angeles Center
Mon 05:18:56 PM 32.9981 -113.2758 68° East 552 635 37,300 1,065 Climbing Los Angeles Center
Mon 05:19:58 PM 33.0675 -113.0744 68° East 546 628 38,500 1,067 Climbing Los Angeles Center
Mon 05:21:11 PM 33.1347 -112.8692 69° East 546 628 39,700 978 Climbing Albuquerque Center
Mon 05:22:13 PM 33.1897 -112.7031 68° East 539 620 40,700 629 Climbing Albuquerque Center
Mon 05:23:15 PM 33.2392 -112.5556 68° East 526 605 41,000 145 Climbing Albuquerque Center
Mon 05:24:17 PM 33.2953 -112.3900 68° East 539 620 41,000  Level Albuquerque Center
Mon 05:25:19 PM 33.3614 -112.1878 69° East 548 631 41,000  Level Albuquerque Center
Mon 05:26:21 PM 33.4161 -112.0208 69° East 546 628 41,000  Level Albuquerque Center
Mon 05:27:23 PM 33.4753 -111.8556 67° East 546 628 41,000  Level Albuquerque Center
Mon 05:28:25 PM 33.5361 -111.6908 66° East 546 628 41,000  Level Albuquerque Center
Mon 05:29:27 PM 33.5958 -111.5250 67° East 549 632 41,000  Level Albuquerque Center
Mon 05:30:29 PM 33.6683 -111.3256 66° East 550 633 41,000  Level Albuquerque Center
Mon 05:31:31 PM 33.7283 -111.1586 67° East 550 633 41,000  Level Albuquerque Center
Mon 05:32:33 PM 33.7872 -110.9908 67° East 549 632 41,000  Level Albuquerque Center
Mon 05:33:35 PM 33.8464 -110.8222 67° East 550 633 41,000  Level Albuquerque Center
Mon 05:34:36 PM 33.9047 -110.6542 67° East 548 631 41,000  Level Albuquerque Center
Mon 05:35:38 PM 33.9761 -110.4506 67° East 551 634 41,000  Level Albuquerque Center
Mon 05:36:40 PM 34.0328 -110.2914 67° East 557 641 41,000  Level Albuquerque Center
Mon 05:37:42 PM 34.0914 -110.1203 67° East 557 641 41,000  Level Albuquerque Center
Mon 05:38:44 PM 34.1564 -109.9342 67° East 555 639 41,000  Level Albuquerque Center
Mon 05:39:46 PM 34.2233 -109.7419 67° East 556 640 41,000  Level Albuquerque Center
Mon 05:40:48 PM 34.2792 -109.5753 68° East 558 642 41,000  Level Albuquerque Center
Mon 05:41:49 PM 34.3453 -109.3794 68° East 562 647 41,000  Level Albuquerque Center
Mon 05:42:51 PM 34.4011 -109.2117 68° East 562 647 41,000  Level Albuquerque Center
Mon 05:43:53 PM 34.4611 -109.0175 69° East 557 641 41,000  Level Albuquerque Center
Mon 05:44:55 PM 34.5072 -108.8464 72° East 556 640 41,000  Level Albuquerque Center
Mon 05:45:57 PM 34.5625 -108.6464 71° East 559 643 41,000  Level Albuquerque Center
Mon 05:46:58 PM 34.6092 -108.4714 72° East 565 650 41,000 -49 Level Albuquerque Center
Mon 05:48:00 PM 34.6564 -108.2992 72° East 564 649 40,900  Descending Albuquerque Center
Mon 05:49:02 PM 34.7047 -108.1194 72° East 562 647 41,000 49 Climbing Albuquerque Center
Mon 05:50:03 PM 34.7528 -107.9372 72° East 566 651 41,000  Level Albuquerque Center
Mon 05:51:05 PM 34.8011 -107.7556 72° East 565 650 41,000  Level Albuquerque Center
Mon 05:52:07 PM 34.8600 -107.5342 72° East 572 658 41,000  Level Albuquerque Center
Mon 05:53:08 PM 34.9086 -107.3469 72° East 578 665 41,000  Level Albuquerque Center
Mon 05:54:10 PM 34.9564 -107.1603 73° East 575 662 41,000  Level Albuquerque Center
Mon 05:55:12 PM 35.0100 -106.9519 73° East 576 663 41,000  Level Albuquerque Center
Mon 05:56:13 PM 35.0578 -106.7783 71° East 568 654 41,000  Level Albuquerque Center
Mon 05:57:15 PM 35.1222 -106.6103 65° Northeast 570 656 41,000  Level Albuquerque Center
Mon 05:58:17 PM 35.1917 -106.4206 66° East 574 661 41,000  Level Albuquerque Center
Mon 05:59:18 PM 35.2572 -106.2453 65° Northeast 570 656 41,000  Level Albuquerque Center
Mon 06:00:20 PM 35.3275 -106.0525 66° East 565 650 41,000  Level Albuquerque Center
Mon 06:01:21 PM 35.3944 -105.8742 65° Northeast 570 656 41,000  Level Albuquerque Center
Mon 06:02:23 PM 35.4589 -105.6956 66° East 569 655 41,000  Level Albuquerque Center
Mon 06:03:25 PM 35.5200 -105.5189 67° East 561 646 41,000  Level Albuquerque Center
Mon 06:04:26 PM 35.5811 -105.3433 67° East 554 638 41,000  Level Albuquerque Center
Mon 06:05:28 PM 35.6478 -105.1642 65° Northeast 564 649 41,000  Level Albuquerque Center
Mon 06:06:30 PM 35.7317 -105.0000 58° Northeast 557 641 41,000  Level Albuquerque Center
Mon 06:07:31 PM 35.8186 -104.8336 57° Northeast 565 650 41,000  Level Albuquerque Center
Mon 06:08:33 PM 35.8933 -104.6564 62° Northeast 572 658 41,000 48 Level Albuquerque Center
Mon 06:09:35 PM 35.9764 -104.4461 64° Northeast 576 663 41,100  Climbing Albuquerque Center
Mon 06:10:36 PM 36.0489 -104.2653 64° Northeast 577 664 41,000 -49 Descending Albuquerque Center
Mon 06:11:38 PM 36.1203 -104.0836 64° Northeast 579 666 41,000  Level Albuquerque Center
Mon 06:12:40 PM 36.1922 -103.9039 64° Northeast 578 665 41,000  Level Albuquerque Center
Mon 06:13:41 PM 36.2619 -103.7244 64° Northeast 575 662 41,000 49 Level Albuquerque Center
Mon 06:14:43 PM 36.3322 -103.5447 64° Northeast 574 661 41,100  Climbing Albuquerque Center
Mon 06:15:44 PM 36.4008 -103.3647 65° Northeast 573 659 41,000 -49 Descending Albuquerque Center
Mon 06:16:46 PM 36.4706 -103.1836 64° Northeast 575 662 41,000  Level Albuquerque Center
Mon 06:17:48 PM 36.5397 -103.0028 64° Northeast 574 661 41,000  Level Albuquerque Center
Mon 06:18:50 PM 36.6131 -102.8072 65° Northeast 577 664 41,000  Level Albuquerque Center
Mon 06:19:51 PM 36.6864 -102.6142 65° Northeast 579 666 41,000  Level Albuquerque Center
Mon 06:20:53 PM 36.7497 -102.4417 65° Northeast 585 673 41,000  Level Albuquerque Center
Mon 06:21:55 PM 36.8181 -102.2592 65° Northeast 583 671 41,000  Level Albuquerque Center
Mon 06:22:56 PM 36.8872 -102.0742 65° Northeast 580 667 41,000  Level Albuquerque Center
Mon 06:23:58 PM 36.9639 -101.8681 65° Northeast 585 673 41,000  Level Albuquerque Center
Mon 06:25:00 PM 37.0250 -101.6903 67° East 585 673 41,000  Level Albuquerque Center
Mon 06:26:01 PM 37.0878 -101.4783 70° East 583 671 41,000  Level Albuquerque Center
Mon 06:26:45 PM 37.1233 -101.3564 70° East 584 672 41,000  Level Kansas City Center
Mon 06:27:49 PM 37.1858 -101.1442 70° East 584 672 41,000  Level Kansas City Center
Mon 06:28:50 PM 37.2389 -100.9608 70° East 587 676 41,000  Level Kansas City Center
Mon 06:29:53 PM 37.2992 -100.7478 70° East 586 674 41,000  Level Kansas City Center
Mon 06:30:54 PM 37.3517 -100.5647 70° East 588 677 41,000  Level Kansas City Center
Mon 06:31:55 PM 37.4122 -100.3508 70° East 588 677 41,000  Level Kansas City Center
Mon 06:32:58 PM 37.4647 -100.1656 70° East 589 678 41,000  Level Kansas City Center
Mon 06:33:59 PM 37.5247 -99.9500 71° East 589 678 41,000  Level Kansas City Center
Mon 06:35:02 PM 37.5769 -99.7622 71° East 592 681 41,000  Level Kansas City Center
Mon 06:36:03 PM 37.6394 -99.5442 70° East 594 684 41,000  Level Kansas City Center
Mon 06:37:04 PM 37.6900 -99.3564 71° East 590 679 41,000  Level Kansas City Center
Mon 06:38:08 PM 37.7433 -99.1575 71° East 594 684 41,000  Level Kansas City Center
Mon 06:39:09 PM 37.7942 -98.9603 72° East 593 682 41,000  Level Kansas City Center
Mon 06:40:13 PM 37.8450 -98.7606 72° East 595 685 41,000  Level Kansas City Center
Mon 06:41:13 PM 37.9108 -98.5231 71° East 595 685 41,000  Level Kansas City Center
Mon 06:42:16 PM 37.9633 -98.3206 72° East 600 690 41,000  Level Kansas City Center
Mon 06:43:17 PM 38.0169 -98.1114 72° East 594 684 41,000  Level Kansas City Center
Mon 06:44:21 PM 38.0642 -97.9083 73° East 595 685 41,000  Level Kansas City Center
Mon 06:45:22 PM 38.1158 -97.7278 70° East 594 684 41,000  Level Kansas City Center
Mon 06:46:23 PM 38.1750 -97.4917 72° East 597 687 41,000  Level Kansas City Center
Mon 06:47:26 PM 38.2222 -97.3092 72° East 594 684 41,000  Level Kansas City Center
Mon 06:48:28 PM 38.2717 -97.1078 73° East 595 685 41,000  Level Kansas City Center
Mon 06:49:28 PM 38.3219 -96.9067 72° East 597 687 41,000  Level Kansas City Center
Mon 06:50:32 PM 38.3711 -96.7050 73° East 597 687 41,000  Level Kansas City Center
Mon 06:51:32 PM 38.4286 -96.4633 73° East 594 684 41,000  Level Kansas City Center
Mon 06:52:36 PM 38.4731 -96.2806 73° East 596 686 41,000  Level Kansas City Center
Mon 06:53:36 PM 38.5275 -96.0533 73° East 600 690 41,000  Level Kansas City Center
Mon 06:54:40 PM 38.5719 -95.8597 74° East 598 688 41,000  Level Kansas City Center
Mon 06:55:41 PM 38.6250 -95.6339 73° East 595 685 41,000  Level Kansas City Center
Mon 06:56:42 PM 38.6708 -95.4406 73° East 597 687 41,000  Level Kansas City Center
Mon 06:57:43 PM 38.7233 -95.2142 73° East 597 687 41,000  Level Kansas City Center
Mon 06:58:47 PM 38.7664 -95.0214 74° East 593 682 41,000  Level Kansas City Center
Mon 06:59:48 PM 38.8172 -94.7967 74° East 594 684 41,000  Level Kansas City Center
Mon 07:00:50 PM 38.8608 -94.6044 74° East 591 680 41,000  Level Kansas City Center
Mon 07:01:51 PM 38.9103 -94.3794 74° East 591 680 41,000  Level Kansas City Center
Mon 07:02:55 PM 38.9531 -94.1844 74° East 593 682 41,000  Level Kansas City Center
Mon 07:03:55 PM 39.0017 -93.9586 74° East 591 680 41,000  Level Kansas City Center
Mon 07:04:59 PM 39.0439 -93.7644 74° East 591 680 41,000  Level Kansas City Center
Mon 07:05:59 PM 39.0922 -93.5364 75° East 592 681 41,000  Level Kansas City Center
Mon 07:07:00 PM 39.1364 -93.3372 74° East 592 681 41,000  Level Kansas City Center
Mon 07:08:04 PM 39.1783 -93.1358 75° East 591 680 41,000  Level Kansas City Center
Mon 07:09:05 PM 39.2192 -92.9364 75° East 587 676 41,000  Level Kansas City Center
Mon 07:10:06 PM 39.2686 -92.6964 75° East 586 674 41,000  Level Kansas City Center
Mon 07:11:10 PM 39.3089 -92.4967 75° East 584 672 41,000  Level Kansas City Center
Mon 07:12:11 PM 39.3478 -92.2975 76° East 581 669 41,000  Level Kansas City Center
Mon 07:13:12 PM 39.3878 -92.0992 75° East 580 667 41,000  Level Kansas City Center
Mon 07:14:16 PM 39.4269 -91.8994 76° East 580 667 41,000  Level Kansas City Center
Mon 07:15:16 PM 39.4744 -91.6608 75° East 579 666 41,000  Level Kansas City Center
Mon 07:16:20 PM 39.5128 -91.4628 76° East 575 662 41,000  Level Kansas City Center
Mon 07:17:20 PM 39.5483 -91.2761 76° East 575 662 41,000  Level Kansas City Center
Mon 07:18:24 PM 39.5942 -91.0356 76° East 573 659 41,000  Level Kansas City Center
Mon 07:19:25 PM 39.6303 -90.8350 77° East 572 658 41,000  Level Kansas City Center
Mon 07:20:26 PM 39.6681 -90.6347 76° East 570 656 41,000  Level Kansas City Center
Mon 07:21:30 PM 39.6917 -90.4333 81° East 567 652 41,000  Level Kansas City Center
Mon 07:22:31 PM 39.7006 -90.2272 87° East 569 655 41,000  Level Kansas City Center
Mon 07:23:34 PM 39.7097 -90.0228 87° East 567 652 41,000  Level Kansas City Center
Mon 07:24:35 PM 39.7186 -89.7972 87° East 568 654 41,000  Level Kansas City Center
Mon 07:25:36 PM 39.7278 -89.5922 87° East 570 656 41,000  Level Kansas City Center
Mon 07:26:40 PM 39.7356 -89.3883 87° East 569 655 41,000  Level Kansas City Center
Mon 07:27:41 PM 39.7431 -89.1844 87° East 568 654 41,000  Level Kansas City Center
Mon 07:28:43 PM 39.7528 -88.9428 87° East 564 649 41,000  Level Kansas City Center
Mon 07:29:46 PM 39.7597 -88.7389 87° East 565 650 41,000  Level Kansas City Center
Mon 07:30:47 PM 39.7658 -88.5342 88° East 568 654 41,000  Level Kansas City Center
Mon 07:31:48 PM 39.7739 -88.3294 87° East 569 655 41,000  Level Kansas City Center
Mon 07:32:50 PM 39.7881 -88.1072 85° East 567 652 41,000  Level Kansas City Center
Mon 07:33:54 PM 39.8003 -87.9006 86° East 569 655 41,000  Level Kansas City Center
Mon 07:34:55 PM 39.8122 -87.6950 86° East 569 655 41,000  Level Kansas City Center
Mon 07:35:44 PM 39.8208 -87.5367 86° East 564 649 41,000  Level Indianapolis Center
Mon 07:36:46 PM 39.8350 -87.2872 86° East 570 656 41,000  Level Indianapolis Center
Mon 07:37:48 PM 39.8467 -87.0808 86° East 570 656 41,000  Level Indianapolis Center
Mon 07:38:49 PM 39.8578 -86.8747 86° East 569 655 41,000  Level Indianapolis Center
Mon 07:39:51 PM 39.8678 -86.6697 86° East 566 651 41,000  Level Indianapolis Center
Mon 07:40:53 PM 39.8778 -86.4653 86° East 564 649 41,000  Level Indianapolis Center
Mon 07:41:54 PM 39.8878 -86.2589 86° East 567 652 41,000  Level Indianapolis Center
Mon 07:42:56 PM 39.8972 -86.0525 87° East 568 654 41,000  Level Indianapolis Center
Mon 07:43:58 PM 39.9069 -85.8378 87° East 568 654 41,000  Level Indianapolis Center
Mon 07:44:59 PM 39.9158 -85.6317 87° East 566 651 41,000  Level Indianapolis Center
Mon 07:46:01 PM 39.9247 -85.4253 87° East 565 650 41,000  Level Indianapolis Center
Mon 07:47:03 PM 39.9317 -85.2192 87° East 565 650 41,000  Level Indianapolis Center
Mon 07:48:04 PM 39.9389 -85.0122 87° East 567 652 41,000  Level Indianapolis Center
Mon 07:49:06 PM 39.9486 -84.7703 87° East 568 654 41,000  Level Indianapolis Center
Mon 07:50:08 PM 39.9558 -84.5633 87° East 567 652 41,000  Level Indianapolis Center
Mon 07:51:09 PM 39.9636 -84.3547 87° East 570 656 41,000  Level Indianapolis Center
Mon 07:52:11 PM 39.9686 -84.1478 88° East 567 652 41,000  Level Indianapolis Center
Mon 07:53:12 PM 39.9744 -83.9386 88° East 569 655 41,000  Level Indianapolis Center
Mon 07:54:14 PM 39.9797 -83.7308 88° East 568 654 41,000  Level Indianapolis Center
Mon 07:55:16 PM 39.9853 -83.5200 88° East 566 651 41,000  Level Indianapolis Center
Mon 07:56:17 PM 39.9908 -83.3061 88° East 570 656 41,000  Level Indianapolis Center
Mon 07:57:19 PM 39.9939 -83.0983 89° East 566 651 41,000  Level Indianapolis Center
Mon 07:58:20 PM 39.9981 -82.8919 88° East 563 648 41,000  Level Indianapolis Center
Mon 07:59:22 PM 40.0019 -82.6869 89° East 562 647 41,000  Level Indianapolis Center
Mon 08:00:23 PM 40.0047 -82.4833 89° East 557 641 41,000  Level Indianapolis Center
Mon 08:01:25 PM 40.0067 -82.2794 89° East 558 642 41,000  Level Indianapolis Center
Mon 08:02:26 PM 40.0100 -82.0758 89° East 557 641 41,000  Level Indianapolis Center
Mon 08:03:28 PM 40.0114 -81.8717 89° East 558 642 41,000  Level Indianapolis Center
Mon 08:04:29 PM 40.0128 -81.6525 89° East 554 638 41,000  Level Indianapolis Center
Mon 08:05:31 PM 40.0144 -81.4497 89° East 555 639 41,000  Level Indianapolis Center
Mon 08:06:32 PM 40.0150 -81.2461 90° East 558 642 41,000  Level Indianapolis Center
Mon 08:07:51 PM 40.0186 -80.9817 89° East 552 635 41,000  Level Cleveland Center
Mon 08:08:51 PM 40.0108 -80.7836 93° East 552 635 41,000  Level Cleveland Center
Mon 08:09:51 PM 39.9756 -80.5911 103° East 546 628 41,000  Level Cleveland Center
Mon 08:10:51 PM 39.9336 -80.3936 105° East 553 636 41,000  Level Cleveland Center
Mon 08:11:51 PM 39.8936 -80.1989 105° East 553 636 41,000 -600 Level Cleveland Center
Mon 08:12:51 PM 39.8553 -80.0072 105° East 553 636 39,800 -1,000 Descending Cleveland Center
Mon 08:13:51 PM 39.8167 -79.8181 105° East 543 625 39,000 -400 Descending Cleveland Center
Mon 08:14:51 PM 39.7733 -79.6025 105° East 549 632 39,000 -63 Level Cleveland Center
Mon 08:15:27 PM 39.7486 -79.4886 106° East 565 650 38,900 -1,750 Descending Washington Center
Mon 08:16:27 PM 39.7086 -79.3003 105° East 572 658 36,200 -3,400 Descending Washington Center
Mon 08:17:27 PM 39.6686 -79.1122 105° East 554 638 32,100 -3,650 Descending Washington Center
Mon 08:18:27 PM 39.6372 -78.9706 106° East 539 620 28,900 -3,900 Descending Washington Center
Mon 08:19:27 PM 39.5906 -78.7744 107° East 521 600 24,300 -4,350 Descending Washington Center
Mon 08:20:27 PM 39.5531 -78.6114 107° East 497 572 20,200 -3,550 Descending Washington Center
Mon 08:21:27 PM 39.5156 -78.4403 106° East 463 533 17,200 -2,600 Descending Washington Center
Mon 08:22:27 PM 39.4853 -78.2994 106° East 437 503 15,000 -1,100 Descending Washington Center
Mon 08:23:27 PM 39.4511 -78.1503 106° East 427 491 15,000  Level Washington Center
Mon 08:24:27 PM 39.4167 -77.9986 106° East 427 491 15,000  Level Washington Center
Mon 08:25:27 PM 39.3861 -77.8497 105° East 427 491 15,000  Level Washington Center
Mon 08:26:27 PM 39.4014 -77.7000 82° East 407 468 15,000 -600 Level Washington Center
Mon 08:27:27 PM 39.4225 -77.5556 79° East 407 468 13,800 -1,500 Descending Washington Center
Mon 08:28:27 PM 39.4369 -77.4350 81° East 376 433 12,000 -1,846 Descending Washington Center
Mon 08:28:58 PM 39.4500 -77.3667 76° East 314 361 11,000 -706 Descending Potomac TRACON
Mon 08:29:52 PM 39.4667 -77.2833 75° East 308 354 11,000 -579 Level Potomac TRACON
Mon 08:30:52 PM 39.4667 -77.1667 90° East 306 352 9,900 -1,400 Descending Potomac TRACON
Mon 08:31:52 PM 39.4833 -77.0667 78° East 302 348 8,200 -1,650 Descending Potomac TRACON
Mon 08:32:52 PM 39.5000 -76.9667 78° East 297 342 6,600 -1,450 Descending Potomac TRACON
Mon 08:33:52 PM 39.4833 -76.8833 105° East 253 291 5,300 -1,300 Descending Potomac TRACON
Mon 08:34:52 PM 39.4333 -76.8333 142° Southeast 238 274 4,000 -650 Descending Potomac TRACON
Mon 08:35:52 PM 39.3833 -76.8833 218° Southwest 220 253 4,000  Level Potomac TRACON
Mon 08:36:52 PM 39.3500 -76.9500 237° Southwest 185 213 4,000  Level Potomac TRACON
Mon 08:37:53 PM 39.3167 -76.9833 218° Southwest 174 200 4,000 -209 Level Potomac TRACON
Mon 08:38:47 PM 39.2667 -76.9833 180° South 150 173 3,600 -526 Descending Potomac TRACON
Mon 08:39:47 PM 39.2333 -76.9667 159° South 144 166 3,000 -300 Descending Potomac TRACON
Mon 08:40:47 PM 39.2000 -76.9333 142° Southeast 127 146 3,000  Level Potomac TRACON
Mon 08:41:53 PM 39.1833 -76.9000 123° Southeast 142 163 3,000 -200 Level Potomac TRACON
Mon 08:42:47 PM 39.1833 -76.8500 90° East 139 160 2,600 -579 Descending Potomac TRACON
Mon 08:43:47 PM 39.1833 -76.8000 90° East 140 161 1,900 -700 Descending Potomac TRACON
Mon 08:44:47 PM 39.1833 -76.7500 90° East 125 144 1,200 -650 Descending Potomac TRACON
Mon 08:45:47 PM 39.1833 -76.7167 90° East 119 137 600 -600 Descending Potomac TRACON

Login

Don't have an account? Register now (free) for customized features, flight alerts, and more!